Time;durP1;ratioP1;P1;durP2;ratioP2;P2;SDS_P1;SDS_P2;PMS_P1;PMS_P2;Temp;Humidity;BMP_temperature;BMP_pressure;BME280_temperature;BME280_humidity;BME280_pressure;Samples;Min_cycle;Max_cycle;Signal;HPM_P1;HPM_P2
2023/01/10 00:02:14;;;;;;;11.50;4.40;;;;;;;;;;5030037;28;20549;-76
2023/01/10 00:04:40;;;;;;;19.30;5.67;;;;;;;;;;5028696;28;20117;-78
2023/01/10 00:07:06;;;;;;;14.23;3.93;;;;;;;;;;5027356;28;20029;-78
2023/01/10 00:09:32;;;;;;;10.90;4.20;;;;;;;;;;5048228;28;20025;-76
2023/01/10 00:14:42;;;;;;;14.77;3.83;;;;;;;;;;5033659;28;20449;-79
2023/01/10 00:17:08;;;;;;;19.53;3.60;;;;;;;;;;5047350;28;20029;-78
2023/01/10 00:19:34;;;;;;;6.47;2.77;;;;;;;;;;5032351;28;20044;-79
2023/01/10 00:22:04;;;;;;;16.20;3.60;;;;;;;;;;5043187;28;20034;-77
2023/01/10 00:24:30;;;;;;;12.43;2.93;;;;;;;;;;5048040;28;20029;-77
2023/01/10 00:26:57;;;;;;;11.20;3.17;;;;;;;;;;5048378;28;20442;-75
2023/01/10 00:29:26;;;;;;;16.43;3.23;;;;;;;;;;5025593;28;20037;-77
2023/01/10 00:31:52;;;;;;;8.73;3.67;;;;;;;;;;5025550;28;20044;-78
2023/01/10 00:34:23;;;;;;;13.87;3.07;;;;;;;;;;5041491;28;20034;-76
2023/01/10 00:36:49;;;;;;;10.83;2.67;;;;;;;;;;5042444;28;20029;-78
2023/01/10 00:39:18;;;;;;;17.10;2.80;;;;;;;;;;5044660;28;20084;-77
2023/01/10 00:44:29;;;;;;;6.67;1.87;;;;;;;;;;5035663;28;20044;-78
2023/01/10 00:46:55;;;;;;;14.53;2.97;;;;;;;;;;5049354;28;20064;-77
2023/01/10 00:49:21;;;;;;;16.27;2.20;;;;;;;;;;5043706;28;20025;-77
2023/01/10 00:51:47;;;;;;;12.77;2.67;;;;;;;;;;5046509;28;20029;-78
2023/01/10 00:54:14;;;;;;;14.90;2.40;;;;;;;;;;5047731;28;20071;-79
2023/01/10 00:56:40;;;;;;;11.73;2.30;;;;;;;;;;5027500;28;20025;-77
2023/01/10 00:59:06;;;;;;;14.37;2.50;;;;;;;;;;5044300;28;20029;-78
2023/01/10 01:01:32;;;;;;;14.87;2.03;;;;;;;;;;5028861;28;20038;-76
2023/01/10 01:03:58;;;;;;;14.03;2.60;;;;;;;;;;5047584;28;20426;-76
2023/01/10 01:06:25;;;;;;;8.77;2.50;;;;;;;;;;5024288;28;20055;-76
2023/01/10 01:08:51;;;;;;;11.57;2.07;;;;;;;;;;5050000;28;20025;-78
2023/01/10 01:11:17;;;;;;;12.87;2.20;;;;;;;;;;5027863;28;20516;-78
2023/01/10 01:13:43;;;;;;;12.97;3.33;;;;;;;;;;5028081;28;20049;-78
2023/01/10 01:16:09;;;;;;;10.37;2.50;;;;;;;;;;5047441;28;20490;-78
2023/01/10 01:18:35;;;;;;;16.00;3.33;;;;;;;;;;5023832;28;20034;-76
2023/01/10 01:21:02;;;;;;;11.90;2.10;;;;;;;;;;5043748;28;20040;-77
2023/01/10 01:23:29;;;;;;;14.17;2.57;;;;;;;;;;5033415;28;20064;-79
2023/01/10 01:25:55;;;;;;;16.30;3.10;;;;;;;;;;5043299;28;20048;-77
2023/01/10 01:28:23;;;;;;;19.03;2.30;;;;;;;;;;5051081;28;20026;-78
2023/01/10 01:30:49;;;;;;;16.87;3.17;;;;;;;;;;5026632;28;20022;-78
2023/01/10 01:33:15;;;;;;;11.97;2.37;;;;;;;;;;5042575;28;20657;-79
2023/01/10 01:35:45;;;;;;;15.90;2.97;;;;;;;;;;5046549;28;20040;-77
2023/01/10 01:38:12;;;;;;;14.47;2.17;;;;;;;;;;5046932;28;20461;-77
2023/01/10 01:40:40;;;;;;;15.90;2.87;;;;;;;;;;5031725;28;20041;-79
2023/01/10 01:43:19;;;;;;;15.10;2.70;;;;;;;;;;5041892;28;20033;-78
2023/01/10 01:45:46;;;;;;;9.20;2.30;;;;;;;;;;5030728;28;20029;-79
2023/01/10 01:48:20;;;;;;;13.67;2.50;;;;;;;;;;5042056;28;20032;-78
2023/01/10 01:50:46;;;;;;;11.27;2.33;;;;;;;;;;5027224;28;20030;-77
2023/01/10 01:53:34;;;;;;;14.93;2.60;;;;;;;;;;5046317;28;20033;-77
2023/01/10 01:56:07;;;;;;;8.33;2.60;;;;;;;;;;5025553;28;20029;-78
2023/01/10 01:58:43;;;;;;;12.77;2.73;;;;;;;;;;5023430;28;20043;-78
2023/01/10 02:01:09;;;;;;;17.53;3.77;;;;;;;;;;5030234;28;20043;-77
2023/01/10 02:03:38;;;;;;;11.27;2.50;;;;;;;;;;5023851;28;20041;-78
2023/01/10 02:06:05;;;;;;;11.87;2.40;;;;;;;;;;5029599;28;20044;-76
2023/01/10 02:08:34;;;;;;;8.13;2.83;;;;;;;;;;5046359;28;20033;-79
2023/01/10 02:11:09;;;;;;;14.50;2.73;;;;;;;;;;5045650;28;20033;-78
2023/01/10 02:13:40;;;;;;;13.17;3.00;;;;;;;;;;5024713;28;20059;-78
2023/01/10 02:16:06;;;;;;;14.33;3.97;;;;;;;;;;5023906;28;20461;-78
2023/01/10 02:18:32;;;;;;;11.07;2.73;;;;;;;;;;5025354;28;20044;-78
2023/01/10 02:21:14;;;;;;;19.80;3.20;;;;;;;;;;5030023;28;20041;-77
2023/01/10 02:23:43;;;;;;;11.65;3.05;;;;;;;;;;5040230;28;20033;-77
2023/01/10 02:26:12;;;;;;;17.27;3.37;;;;;;;;;;5046539;28;20148;-78
2023/01/10 02:28:57;;;;;;;18.57;2.67;;;;;;;;;;5045720;28;20048;-77
2023/01/10 02:31:23;;;;;;;13.53;2.90;;;;;;;;;;5046302;28;20044;-78
2023/01/10 02:33:57;;;;;;;18.07;3.20;;;;;;;;;;5025993;28;20042;-76
2023/01/10 02:36:40;;;;;;;17.53;3.20;;;;;;;;;;5045483;28;20048;-78
2023/01/10 02:39:12;;;;;;;20.47;3.07;;;;;;;;;;5025357;28;20128;-77
2023/01/10 02:41:51;;;;;;;18.35;2.63;;;;;;;;;;5045434;28;20044;-77
2023/01/10 02:44:23;;;;;;;13.07;3.00;;;;;;;;;;5041024;28;20164;-78
2023/01/10 02:46:49;;;;;;;16.93;2.77;;;;;;;;;;5046002;28;20462;-78
2023/01/10 02:49:18;;;;;;;21.70;3.87;;;;;;;;;;5046094;28;20033;-77
2023/01/10 02:51:44;;;;;;;19.70;2.70;;;;;;;;;;5025120;28;20453;-77
2023/01/10 02:54:18;;;;;;;18.87;3.30;;;;;;;;;;5023883;28;20040;-77
2023/01/10 02:56:50;;;;;;;13.10;2.67;;;;;;;;;;5028359;28;20087;-78
2023/01/10 02:59:37;;;;;;;13.43;2.67;;;;;;;;;;5045299;28;20040;-80
2023/01/10 03:02:03;;;;;;;16.53;3.33;;;;;;;;;;5045127;28;20042;-78
2023/01/10 03:04:35;;;;;;;11.93;2.93;;;;;;;;;;5047104;28;20935;-78
2023/01/10 03:07:17;;;;;;;16.40;3.63;;;;;;;;;;5040334;28;20022;-78
2023/01/10 03:10:02;;;;;;;14.90;3.45;;;;;;;;;;5048761;28;20029;-78
2023/01/10 03:12:37;;;;;;;21.67;2.57;;;;;;;;;;5046234;28;20037;-78
2023/01/10 03:15:04;;;;;;;20.83;2.77;;;;;;;;;;5025768;28;20047;-78
2023/01/10 03:17:30;;;;;;;20.80;3.57;;;;;;;;;;5031233;28;20037;-76
2023/01/10 03:20:00;;;;;;;16.83;4.00;;;;;;;;;;5034927;28;20037;-76
2023/01/10 03:22:29;;;;;;;16.83;2.60;;;;;;;;;;5049524;28;20033;-78
2023/01/10 03:25:00;;;;;;;13.00;3.00;;;;;;;;;;5033241;28;20037;-77
2023/01/10 03:27:35;;;;;;;13.53;2.63;;;;;;;;;;5045994;28;20370;-78
2023/01/10 03:30:01;;;;;;;22.40;3.20;;;;;;;;;;5049368;28;20113;-78
2023/01/10 03:32:29;;;;;;;18.30;3.27;;;;;;;;;;5026325;28;20144;-80
2023/01/10 03:34:55;;;;;;;23.60;3.20;;;;;;;;;;5029401;28;20056;-78
2023/01/10 03:37:27;;;;;;;10.63;2.63;;;;;;;;;;5049484;28;20049;-79
2023/01/10 03:39:53;;;;;;;17.53;3.83;;;;;;;;;;5050477;28;20029;-77
2023/01/10 03:42:28;;;;;;;15.83;3.73;;;;;;;;;;5032897;28;20103;-79
2023/01/10 03:45:00;;;;;;;11.87;3.10;;;;;;;;;;5050526;28;20120;-79
2023/01/10 03:47:40;;;;;;;22.90;3.00;;;;;;;;;;5047842;28;20600;-76
2023/01/10 03:50:10;;;;;;;13.70;2.87;;;;;;;;;;5048173;28;20034;-79
2023/01/10 03:52:36;;;;;;;17.50;3.10;;;;;;;;;;5027713;28;20366;-79
2023/01/10 03:55:04;;;;;;;13.50;3.00;;;;;;;;;;5032265;28;20033;-77
2023/01/10 03:57:32;;;;;;;22.30;3.57;;;;;;;;;;5026420;28;20122;-77
2023/01/10 03:59:59;;;;;;;21.90;3.50;;;;;;;;;;5032565;28;20037;-77
2023/01/10 04:02:26;;;;;;;15.43;3.83;;;;;;;;;;5030182;28;20033;-77
2023/01/10 04:04:52;;;;;;;20.80;3.50;;;;;;;;;;5046637;28;20018;-78
2023/01/10 04:07:18;;;;;;;17.63;3.43;;;;;;;;;;5026358;28;20489;-78
2023/01/10 04:09:44;;;;;;;18.93;2.87;;;;;;;;;;5047642;28;20033;-76
2023/01/10 04:12:10;;;;;;;16.40;3.23;;;;;;;;;;5032171;28;20043;-78
2023/01/10 04:14:36;;;;;;;18.47;3.33;;;;;;;;;;5047681;28;20048;-77
2023/01/10 04:17:02;;;;;;;13.77;3.30;;;;;;;;;;5028065;28;20026;-77
2023/01/10 04:19:28;;;;;;;17.60;3.63;;;;;;;;;;5025898;28;20040;-76
2023/01/10 04:21:54;;;;;;;16.53;3.60;;;;;;;;;;5040928;28;20434;-76
2023/01/10 04:24:23;;;;;;;21.83;3.10;;;;;;;;;;5029281;28;20033;-78
2023/01/10 04:26:48;;;;;;;18.83;3.67;;;;;;;;;;5039834;28;20025;-77
2023/01/10 04:29:15;;;;;;;21.13;3.63;;;;;;;;;;5047132;28;20395;-76
2023/01/10 04:31:41;;;;;;;17.30;3.10;;;;;;;;;;5041326;28;20041;-77
2023/01/10 04:34:08;;;;;;;22.13;3.33;;;;;;;;;;5031736;28;20104;-75
2023/01/10 04:36:34;;;;;;;25.97;4.00;;;;;;;;;;5024978;28;20421;-77
2023/01/10 04:39:00;;;;;;;20.53;4.07;;;;;;;;;;5031998;28;20033;-77
2023/01/10 04:41:26;;;;;;;19.53;4.37;;;;;;;;;;5047185;28;20103;-77
2023/01/10 04:43:54;;;;;;;20.57;3.27;;;;;;;;;;5025723;28;20087;-76
2023/01/10 04:46:20;;;;;;;12.40;2.90;;;;;;;;;;5048025;28;20079;-78
2023/01/10 04:48:46;;;;;;;13.90;3.27;;;;;;;;;;5041458;28;20078;-77
2023/01/10 04:51:12;;;;;;;19.60;3.63;;;;;;;;;;5046942;28;20033;-77
2023/01/10 04:53:38;;;;;;;15.00;3.37;;;;;;;;;;5031803;28;20064;-76
2023/01/10 04:56:05;;;;;;;27.43;4.47;;;;;;;;;;5027452;28;20473;-78
2023/01/10 04:58:35;;;;;;;22.77;4.30;;;;;;;;;;5041846;28;20077;-76
2023/01/10 05:01:08;;;;;;;15.57;3.57;;;;;;;;;;5032739;28;20040;-77
2023/01/10 05:03:34;;;;;;;24.30;3.43;;;;;;;;;;5047057;28;20041;-80
2023/01/10 05:06:00;;;;;;;18.20;3.53;;;;;;;;;;5027959;28;20026;-77
2023/01/10 05:08:26;;;;;;;15.07;3.73;;;;;;;;;;5040590;28;20025;-77
2023/01/10 05:10:52;;;;;;;19.90;3.83;;;;;;;;;;5031969;28;20663;-76
2023/01/10 05:13:18;;;;;;;23.87;3.80;;;;;;;;;;5047169;28;20025;-77
2023/01/10 05:15:44;;;;;;;17.03;3.40;;;;;;;;;;5046102;28;20361;-77
2023/01/10 05:18:10;;;;;;;17.67;3.67;;;;;;;;;;5048279;28;20036;-77
2023/01/10 05:20:36;;;;;;;17.60;3.70;;;;;;;;;;5030608;28;20078;-76
2023/01/10 05:23:02;;;;;;;20.00;3.73;;;;;;;;;;5026328;28;20026;-78
2023/01/10 05:25:28;;;;;;;17.27;3.50;;;;;;;;;;5031675;28;20079;-76
2023/01/10 05:27:54;;;;;;;24.03;4.60;;;;;;;;;;5031087;28;20029;-77
2023/01/10 05:30:20;;;;;;;20.40;4.03;;;;;;;;;;5040980;28;20053;-77
2023/01/10 05:32:46;;;;;;;22.83;3.90;;;;;;;;;;5041769;28;20064;-77
2023/01/10 05:35:12;;;;;;;17.50;3.20;;;;;;;;;;5047441;28;20095;-76
2023/01/10 05:37:38;;;;;;;20.17;4.00;;;;;;;;;;5025592;28;20044;-77
2023/01/10 05:40:04;;;;;;;16.53;3.80;;;;;;;;;;5049352;28;20032;-77
2023/01/10 05:42:30;;;;;;;15.33;3.07;;;;;;;;;;5024136;28;20361;-75
2023/01/10 05:44:56;;;;;;;17.33;3.37;;;;;;;;;;5023554;28;20116;-78
2023/01/10 05:47:24;;;;;;;21.90;4.37;;;;;;;;;;5031153;28;20084;-77
2023/01/10 05:49:59;;;;;;;19.67;4.93;;;;;;;;;;5045557;28;20036;-78
2023/01/10 05:52:25;;;;;;;16.27;2.83;;;;;;;;;;5023495;28;20029;-76
2023/01/10 05:54:51;;;;;;;19.03;4.33;;;;;;;;;;5026215;28;20033;-77
2023/01/10 05:57:18;;;;;;;23.80;4.17;;;;;;;;;;5026594;28;20034;-75
2023/01/10 05:59:44;;;;;;;21.90;4.20;;;;;;;;;;5047505;28;20152;-75
2023/01/10 06:02:13;;;;;;;21.43;4.10;;;;;;;;;;5049393;28;20038;-76
2023/01/10 06:04:39;;;;;;;22.50;4.30;;;;;;;;;;5027025;28;20390;-77
2023/01/10 06:07:05;;;;;;;17.90;3.70;;;;;;;;;;5032850;28;20026;-76
2023/01/10 06:09:31;;;;;;;22.90;5.20;;;;;;;;;;5043080;28;20203;-77
2023/01/10 06:12:00;;;;;;;21.17;3.40;;;;;;;;;;5046046;28;20029;-77
2023/01/10 06:14:26;;;;;;;24.90;4.13;;;;;;;;;;5022426;28;20029;-77
2023/01/10 06:16:51;;;;;;;33.63;4.50;;;;;;;;;;5045455;28;20041;-78
2023/01/10 06:19:20;;;;;;;27.30;5.80;;;;;;;;;;5020456;28;20442;-78
2023/01/10 06:21:46;;;;;;;24.63;4.07;;;;;;;;;;5025751;28;20466;-78
2023/01/10 06:24:12;;;;;;;25.70;4.30;;;;;;;;;;5028067;28;20032;-75
2023/01/10 06:26:38;;;;;;;19.43;4.13;;;;;;;;;;5037812;28;20076;-76
2023/01/10 06:29:04;;;;;;;29.37;4.83;;;;;;;;;;5024635;28;20029;-77
2023/01/10 06:31:30;;;;;;;26.37;4.37;;;;;;;;;;5044665;28;20033;-76
2023/01/10 06:33:56;;;;;;;25.70;4.60;;;;;;;;;;5046301;28;20087;-76
2023/01/10 06:36:22;;;;;;;21.37;4.57;;;;;;;;;;5028363;28;20052;-77
2023/01/10 06:38:48;;;;;;;29.50;5.67;;;;;;;;;;5046292;28;20022;-77
2023/01/10 06:41:14;;;;;;;23.57;4.80;;;;;;;;;;5029717;28;20347;-77
2023/01/10 06:43:40;;;;;;;26.40;6.93;;;;;;;;;;5023934;28;20465;-77
2023/01/10 06:46:08;;;;;;;29.43;4.67;;;;;;;;;;5045361;28;20040;-77
2023/01/10 06:48:35;;;;;;;22.40;4.80;;;;;;;;;;5032443;28;20091;-77
2023/01/10 06:51:01;;;;;;;25.50;5.00;;;;;;;;;;5049358;28;20025;-78
2023/01/10 06:53:31;;;;;;;31.87;6.37;;;;;;;;;;5045742;28;20119;-78
2023/01/10 06:55:58;;;;;;;22.77;5.10;;;;;;;;;;5051357;28;20029;-77
2023/01/10 06:58:26;;;;;;;40.87;4.93;;;;;;;;;;5048563;28;20038;-80
2023/01/10 07:00:52;;;;;;;35.97;5.53;;;;;;;;;;5028139;28;20033;-77
2023/01/10 07:03:18;;;;;;;25.27;5.43;;;;;;;;;;5035380;28;20099;-78
2023/01/10 07:05:46;;;;;;;25.17;4.43;;;;;;;;;;5030479;28;20034;-78
2023/01/10 07:08:15;;;;;;;27.00;4.87;;;;;;;;;;5044416;28;20048;-78
2023/01/10 07:10:41;;;;;;;22.47;5.27;;;;;;;;;;5033123;28;20026;-78
2023/01/10 07:13:07;;;;;;;29.33;6.20;;;;;;;;;;5049182;28;20033;-77
2023/01/10 07:15:33;;;;;;;32.43;5.60;;;;;;;;;;5027335;28;20737;-78
2023/01/10 07:17:59;;;;;;;29.90;5.73;;;;;;;;;;5026221;28;20029;-77
2023/01/10 07:20:25;;;;;;;29.27;5.93;;;;;;;;;;5026043;28;20033;-79
2023/01/10 07:23:07;;;;;;;31.57;5.90;;;;;;;;;;5029374;28;20044;-75
2023/01/10 07:25:33;;;;;;;30.63;6.73;;;;;;;;;;5031538;28;20071;-78
2023/01/10 07:27:59;;;;;;;29.37;5.37;;;;;;;;;;5024462;28;20033;-76
2023/01/10 07:30:25;;;;;;;25.73;5.97;;;;;;;;;;5029398;28;21672;-78
2023/01/10 07:32:57;;;;;;;29.77;5.77;;;;;;;;;;5026000;28;20041;-77
2023/01/10 07:35:24;;;;;;;26.83;5.03;;;;;;;;;;5029174;28;20029;-77
2023/01/10 07:37:50;;;;;;;28.73;6.10;;;;;;;;;;5048481;28;20124;-78
2023/01/10 07:40:16;;;;;;;30.40;6.97;;;;;;;;;;5047866;28;20137;-78
2023/01/10 07:42:42;;;;;;;32.17;6.17;;;;;;;;;;5028435;28;20079;-78
2023/01/10 07:45:08;;;;;;;33.13;5.77;;;;;;;;;;5047398;28;20127;-79
2023/01/10 07:47:36;;;;;;;37.30;6.97;;;;;;;;;;5029249;28;20044;-76
2023/01/10 07:50:03;;;;;;;36.17;8.03;;;;;;;;;;5032153;28;20189;-78
2023/01/10 07:52:28;;;;;;;26.07;6.07;;;;;;;;;;5051469;28;20036;-78
2023/01/10 07:54:55;;;;;;;36.80;5.93;;;;;;;;;;5047007;28;20029;-77
2023/01/10 07:57:23;;;;;;;26.90;6.67;;;;;;;;;;5042421;28;20492;-75
2023/01/10 07:59:49;;;;;;;28.53;6.83;;;;;;;;;;5040807;28;20463;-77
2023/01/10 08:02:15;;;;;;;30.20;7.40;;;;;;;;;;5025102;28;20064;-77
2023/01/10 08:04:43;;;;;;;48.60;9.40;;;;;;;;;;5031315;28;20031;-77
2023/01/10 08:07:09;;;;;;;31.90;5.83;;;;;;;;;;5025480;28;20022;-76
2023/01/10 08:09:35;;;;;;;26.33;7.10;;;;;;;;;;5047549;28;20509;-77
2023/01/10 08:12:01;;;;;;;28.10;5.97;;;;;;;;;;5031851;28;20064;-76
2023/01/10 08:14:27;;;;;;;33.97;6.27;;;;;;;;;;5025859;28;20037;-76
2023/01/10 08:16:53;;;;;;;31.90;6.40;;;;;;;;;;5027787;28;20785;-76
2023/01/10 08:19:19;;;;;;;24.10;6.17;;;;;;;;;;5026045;28;20036;-76
2023/01/10 08:21:45;;;;;;;40.57;6.60;;;;;;;;;;5026400;28;20059;-76
2023/01/10 08:24:11;;;;;;;32.97;6.63;;;;;;;;;;5049828;28;20083;-76
2023/01/10 08:26:37;;;;;;;36.63;5.93;;;;;;;;;;5031265;28;20057;-76
2023/01/10 08:29:03;;;;;;;29.43;5.93;;;;;;;;;;5046197;28;20028;-76
2023/01/10 08:31:29;;;;;;;31.33;7.07;;;;;;;;;;5030783;28;20025;-76
2023/01/10 08:33:57;;;;;;;32.83;6.53;;;;;;;;;;5023486;28;20048;-77
2023/01/10 08:36:24;;;;;;;40.23;6.87;;;;;;;;;;5023584;28;20088;-75
2023/01/10 08:38:50;;;;;;;36.03;6.23;;;;;;;;;;5047176;28;20041;-76
2023/01/10 08:41:18;;;;;;;30.00;6.03;;;;;;;;;;5046115;28;20065;-77
2023/01/10 08:43:44;;;;;;;38.43;6.70;;;;;;;;;;5041065;28;20458;-75
2023/01/10 08:46:10;;;;;;;30.97;5.60;;;;;;;;;;5030772;28;20057;-76
2023/01/10 08:48:36;;;;;;;31.83;6.00;;;;;;;;;;5024821;28;20033;-77
2023/01/10 08:51:07;;;;;;;30.70;5.63;;;;;;;;;;5030917;28;20034;-78
2023/01/10 08:53:33;;;;;;;33.40;5.93;;;;;;;;;;5026769;28;20068;-77
2023/01/10 08:55:59;;;;;;;32.73;6.47;;;;;;;;;;5046271;28;20134;-78
2023/01/10 08:58:25;;;;;;;29.43;4.83;;;;;;;;;;5026185;28;20454;-77
2023/01/10 09:00:51;;;;;;;33.17;5.83;;;;;;;;;;5046299;28;20037;-76
2023/01/10 09:03:17;;;;;;;32.13;5.60;;;;;;;;;;5026190;28;20428;-77
2023/01/10 09:05:44;;;;;;;23.00;5.00;;;;;;;;;;5043475;28;20052;-78
2023/01/10 09:08:10;;;;;;;28.60;6.27;;;;;;;;;;5025323;28;20353;-77
2023/01/10 09:10:36;;;;;;;33.90;6.20;;;;;;;;;;5030580;28;20042;-76
2023/01/10 09:13:03;;;;;;;35.87;6.30;;;;;;;;;;5040322;28;20026;-77
2023/01/10 09:15:31;;;;;;;36.87;6.37;;;;;;;;;;5025359;28;20029;-77
2023/01/10 09:17:58;;;;;;;26.57;5.33;;;;;;;;;;5039776;28;20057;-76
2023/01/10 09:20:25;;;;;;;33.63;6.87;;;;;;;;;;5024469;28;20037;-77
2023/01/10 09:22:51;;;;;;;30.27;5.43;;;;;;;;;;5023443;28;20457;-77
2023/01/10 09:25:17;;;;;;;36.07;6.40;;;;;;;;;;5024697;28;20053;-77
2023/01/10 09:27:45;;;;;;;32.80;5.33;;;;;;;;;;5028488;28;20036;-76
2023/01/10 09:30:11;;;;;;;33.03;6.23;;;;;;;;;;5030769;28;20026;-76
2023/01/10 09:32:40;;;;;;;25.60;5.87;;;;;;;;;;5045902;28;20063;-77
2023/01/10 09:35:06;;;;;;;31.30;5.97;;;;;;;;;;5046110;28;20048;-78
2023/01/10 09:37:33;;;;;;;35.77;6.67;;;;;;;;;;5025185;28;20044;-75
2023/01/10 09:39:59;;;;;;;26.33;5.63;;;;;;;;;;5045087;28;20025;-76
2023/01/10 09:42:30;;;;;;;31.10;5.47;;;;;;;;;;5045377;28;20425;-76
2023/01/10 09:45:05;;;;;;;27.20;6.07;;;;;;;;;;5041876;28;20095;-78
2023/01/10 09:47:32;;;;;;;37.43;7.33;;;;;;;;;;5020274;28;20137;-78
2023/01/10 09:49:58;;;;;;;31.23;6.30;;;;;;;;;;5047306;28;20025;-77
2023/01/10 09:52:29;;;;;;;30.90;5.87;;;;;;;;;;5046329;28;20021;-78
2023/01/10 09:54:56;;;;;;;21.40;5.83;;;;;;;;;;5041233;28;20041;-76
2023/01/10 09:57:23;;;;;;;25.90;4.93;;;;;;;;;;5040013;28;20036;-76
2023/01/10 09:59:50;;;;;;;27.53;6.87;;;;;;;;;;5026578;28;20164;-77
2023/01/10 10:02:16;;;;;;;26.80;5.20;;;;;;;;;;5023630;28;20508;-78
2023/01/10 10:04:45;;;;;;;21.77;4.63;;;;;;;;;;5030750;28;20025;-78
2023/01/10 10:07:13;;;;;;;28.73;5.63;;;;;;;;;;5046548;28;20090;-77
2023/01/10 10:09:39;;;;;;;36.17;7.10;;;;;;;;;;5039516;28;20450;-77
2023/01/10 10:12:05;;;;;;;25.73;5.97;;;;;;;;;;5040219;28;20037;-78
2023/01/10 10:14:37;;;;;;;26.43;5.60;;;;;;;;;;5029016;28;20513;-77
2023/01/10 10:17:06;;;;;;;32.22;5.88;;;;;;;;;;5023609;28;20033;-76
2023/01/10 10:19:47;;;;;;;25.33;4.90;;;;;;;;;;5044575;28;20133;-76
2023/01/10 10:22:24;;;;;;;26.27;5.57;;;;;;;;;;5026691;28;20599;-78
2023/01/10 10:25:08;;;;;;;19.10;3.97;;;;;;;;;;5048834;28;20041;-77
2023/01/10 10:27:39;;;;;;;27.47;5.23;;;;;;;;;;5050591;28;20026;-77
2023/01/10 10:30:29;;;;;;;21.33;4.63;;;;;;;;;;5031225;28;20040;-77
2023/01/10 10:33:06;;;;;;;30.07;5.07;;;;;;;;;;5028349;28;20047;-77
2023/01/10 10:35:36;;;;;;;29.73;5.73;;;;;;;;;;5052744;28;20041;-76
2023/01/10 10:38:05;;;;;;;26.43;4.43;;;;;;;;;;5050556;28;20103;-77
2023/01/10 10:40:39;;;;;;;28.37;5.60;;;;;;;;;;5035657;28;20041;-76
2023/01/10 10:43:20;;;;;;;34.90;5.47;;;;;;;;;;5048727;28;20029;-77
2023/01/10 10:45:46;;;;;;;23.60;4.40;;;;;;;;;;5047706;28;20056;-76
2023/01/10 10:48:17;;;;;;;22.40;5.10;;;;;;;;;;5036802;28;20965;-77
2023/01/10 10:50:53;;;;;;;26.73;5.43;;;;;;;;;;5049489;28;20057;-76
2023/01/10 10:53:19;;;;;;;20.43;3.77;;;;;;;;;;5044288;28;20026;-76
2023/01/10 10:55:46;;;;;;;28.00;5.00;;;;;;;;;;5031612;28;20047;-77
2023/01/10 10:58:15;;;;;;;24.10;3.77;;;;;;;;;;5044508;28;20029;-77
2023/01/10 11:00:41;;;;;;;27.60;6.10;;;;;;;;;;5043303;28;20080;-77
2023/01/10 11:03:20;;;;;;;26.43;4.30;;;;;;;;;;5044788;28;20033;-77
2023/01/10 11:05:46;;;;;;;24.80;5.23;;;;;;;;;;5048500;28;20033;-78
2023/01/10 11:08:17;;;;;;;17.23;3.37;;;;;;;;;;5048082;28;20037;-78
2023/01/10 11:10:53;;;;;;;19.30;3.97;;;;;;;;;;5032536;28;20140;-78
2023/01/10 11:13:34;;;;;;;19.77;4.53;;;;;;;;;;5043258;28;20033;-76
2023/01/10 11:16:01;;;;;;;22.40;3.50;;;;;;;;;;5046346;28;20450;-77
2023/01/10 11:18:28;;;;;;;20.07;4.60;;;;;;;;;;5028841;28;20030;-77
2023/01/10 11:20:57;;;;;;;35.07;4.83;;;;;;;;;;5049033;28;20110;-77
2023/01/10 11:23:23;;;;;;;26.17;4.27;;;;;;;;;;5032215;28;20037;-76
2023/01/10 11:25:51;;;;;;;20.67;4.10;;;;;;;;;;5047347;28;21536;-77
2023/01/10 11:28:21;;;;;;;16.67;4.07;;;;;;;;;;5032174;28;20030;-77
2023/01/10 11:30:48;;;;;;;21.03;3.90;;;;;;;;;;5042819;28;20021;-76
2023/01/10 11:33:19;;;;;;;21.40;5.10;;;;;;;;;;5031758;28;20060;-77
2023/01/10 11:35:56;;;;;;;17.47;3.97;;;;;;;;;;5032428;28;20454;-76
2023/01/10 11:38:23;;;;;;;25.93;4.20;;;;;;;;;;5042678;28;20871;-76
2023/01/10 11:40:53;;;;;;;19.87;3.67;;;;;;;;;;5028168;28;20025;-77
2023/01/10 11:43:40;;;;;;;24.07;3.77;;;;;;;;;;5030908;28;20052;-76
2023/01/10 11:46:13;;;;;;;26.23;3.43;;;;;;;;;;5030703;28;20033;-76
2023/01/10 11:48:39;;;;;;;19.50;3.80;;;;;;;;;;5041417;28;20107;-78
2023/01/10 11:51:05;;;;;;;15.30;3.23;;;;;;;;;;5047745;28;21702;-77
2023/01/10 11:53:36;;;;;;;20.90;3.13;;;;;;;;;;5041997;28;21537;-79
2023/01/10 11:56:05;;;;;;;15.07;3.37;;;;;;;;;;5026544;28;20723;-76
2023/01/10 11:58:34;;;;;;;22.23;3.73;;;;;;;;;;5049136;28;20103;-77
2023/01/10 12:01:00;;;;;;;23.73;4.17;;;;;;;;;;5048236;28;20061;-76
2023/01/10 12:03:28;;;;;;;23.57;4.37;;;;;;;;;;5034230;28;20037;-77
2023/01/10 12:06:06;;;;;;;20.27;3.37;;;;;;;;;;5040553;28;20417;-76
2023/01/10 12:08:41;;;;;;;15.47;3.17;;;;;;;;;;5027859;28;20044;-76
2023/01/10 12:11:22;;;;;;;23.53;3.57;;;;;;;;;;5042186;28;20425;-78
2023/01/10 12:13:50;;;;;;;20.20;3.00;;;;;;;;;;5034283;28;20034;-76
2023/01/10 12:16:20;;;;;;;18.57;3.63;;;;;;;;;;5043219;28;20106;-75
2023/01/10 12:18:46;;;;;;;21.40;4.00;;;;;;;;;;5032140;28;20037;-77
2023/01/10 12:21:14;;;;;;;19.30;3.53;;;;;;;;;;5047438;28;20033;-76
2023/01/10 12:23:43;;;;;;;16.80;3.33;;;;;;;;;;5024446;28;20040;-75
2023/01/10 12:26:12;;;;;;;23.93;3.43;;;;;;;;;;5025970;28;20029;-77
2023/01/10 12:28:39;;;;;;;25.37;3.87;;;;;;;;;;5041842;28;20021;-77
2023/01/10 12:31:07;;;;;;;16.70;3.03;;;;;;;;;;5039719;28;20280;-75
2023/01/10 12:33:39;;;;;;;19.67;3.70;;;;;;;;;;5031292;28;20116;-77
2023/01/10 12:36:10;;;;;;;19.13;3.47;;;;;;;;;;5040858;28;20150;-76
2023/01/10 12:44:24;;;;;;;17.05;3.17;;;;;;;;;;5031750;28;20114;-75
2023/01/10 12:46:52;;;;;;;18.93;3.03;;;;;;;;;;5040703;28;20029;-76
2023/01/10 12:49:18;;;;;;;16.43;3.90;;;;;;;;;;5028034;28;20036;-77
2023/01/10 12:51:51;;;;;;;19.90;4.00;;;;;;;;;;5031525;28;20034;-76
2023/01/10 12:54:25;;;;;;;21.00;4.47;;;;;;;;;;5042704;28;20032;-77
2023/01/10 12:56:52;;;;;;;16.03;3.00;;;;;;;;;;5043509;28;20044;-76
2023/01/10 12:59:51;;;;;;;17.70;4.47;;;;;;;;;;5041205;28;20466;-76
2023/01/10 13:02:19;;;;;;;14.97;3.20;;;;;;;;;;5017624;28;20049;-77
2023/01/10 13:04:47;;;;;;;19.87;3.70;;;;;;;;;;5046756;28;20037;-77
2023/01/10 13:07:13;;;;;;;16.97;3.03;;;;;;;;;;5045387;28;20098;-77
2023/01/10 13:09:43;;;;;;;17.83;3.27;;;;;;;;;;5026224;28;20036;-75
2023/01/10 13:12:23;;;;;;;21.87;3.30;;;;;;;;;;5030775;28;20041;-77
2023/01/10 13:15:15;;;;;;;16.30;3.30;;;;;;;;;;5038690;28;20036;-74
2023/01/10 13:17:44;;;;;;;13.70;2.22;;;;;;;;;;5005821;28;20041;-77
2023/01/10 13:20:16;;;;;;;21.67;4.37;;;;;;;;;;5041331;28;20768;-76
2023/01/10 13:22:51;;;;;;;29.20;4.13;;;;;;;;;;5029939;28;20034;-77
2023/01/10 13:25:21;;;;;;;21.03;3.70;;;;;;;;;;5030367;28;20029;-77
2023/01/10 13:27:51;;;;;;;23.27;3.53;;;;;;;;;;5039094;28;20443;-77
2023/01/10 13:30:39;;;;;;;16.40;4.07;;;;;;;;;;5039172;28;20032;-76
2023/01/10 13:33:25;;;;;;;13.20;3.10;;;;;;;;;;5029495;28;20037;-76
2023/01/10 13:35:53;;;;;;;16.53;3.13;;;;;;;;;;5022190;28;20060;-77
2023/01/10 13:38:25;;;;;;;13.83;3.33;;;;;;;;;;5040616;28;20033;-77
2023/01/10 13:41:04;;;;;;;18.02;3.25;;;;;;;;;;5045705;28;20036;-77
2023/01/10 13:43:33;;;;;;;18.97;3.07;;;;;;;;;;5029533;28;20021;-78
2023/01/10 13:46:22;;;;;;;18.33;3.47;;;;;;;;;;5029346;28;20032;-76
2023/01/10 13:48:48;;;;;;;18.40;3.70;;;;;;;;;;5027913;28;20167;-77
2023/01/10 13:51:18;;;;;;;14.60;2.70;;;;;;;;;;5030458;28;20108;-77
2023/01/10 13:53:55;;;;;;;19.43;3.70;;;;;;;;;;5037628;28;20029;-77
2023/01/10 13:56:32;;;;;;;18.70;3.37;;;;;;;;;;5029070;28;20021;-77
2023/01/10 14:04:38;;;;;;;14.80;3.13;;;;;;;;;;5029769;28;20129;-77
2023/01/10 14:07:14;;;;;;;16.13;3.00;;;;;;;;;;5029885;28;20029;-76
2023/01/10 14:09:43;;;;;;;15.40;3.30;;;;;;;;;;5046514;28;20125;-78
2023/01/10 14:12:24;;;;;;;18.40;3.97;;;;;;;;;;5038636;28;20350;-75
2023/01/10 14:14:54;;;;;;;16.80;2.97;;;;;;;;;;5025983;28;20091;-78
2023/01/10 14:17:20;;;;;;;17.30;2.87;;;;;;;;;;5031127;28;20030;-78
2023/01/10 14:19:49;;;;;;;22.07;3.97;;;;;;;;;;5045270;28;20482;-78
2023/01/10 14:22:25;;;;;;;13.90;2.67;;;;;;;;;;5040396;28;20029;-77
2023/01/10 14:24:52;;;;;;;21.87;3.23;;;;;;;;;;5045557;28;20884;-76
2023/01/10 14:27:19;;;;;;;16.63;2.40;;;;;;;;;;5046764;28;20025;-77
2023/01/10 14:29:59;;;;;;;12.80;3.00;;;;;;;;;;5045238;28;20022;-75
2023/01/10 14:32:27;;;;;;;15.17;2.87;;;;;;;;;;5024137;28;20061;-77
2023/01/10 14:34:54;;;;;;;12.97;3.23;;;;;;;;;;5029345;28;20029;-77
2023/01/10 14:37:30;;;;;;;11.93;3.03;;;;;;;;;;5023349;28;20369;-77
2023/01/10 14:39:59;;;;;;;11.87;3.13;;;;;;;;;;5025814;28;20029;-76
2023/01/10 14:42:26;;;;;;;12.57;2.50;;;;;;;;;;5044699;28;20033;-77
2023/01/10 14:44:55;;;;;;;12.47;2.13;;;;;;;;;;5036991;28;20048;-77
2023/01/10 14:47:32;;;;;;;15.43;3.33;;;;;;;;;;5044624;28;20033;-77
2023/01/10 14:50:00;;;;;;;16.73;3.20;;;;;;;;;;5023269;28;20030;-77
2023/01/10 14:52:26;;;;;;;20.97;3.27;;;;;;;;;;5028452;28;20060;-76
2023/01/10 14:55:11;;;;;;;14.57;3.23;;;;;;;;;;5029373;28;20099;-77
2023/01/10 14:57:37;;;;;;;18.80;3.07;;;;;;;;;;5024238;28;20044;-77
2023/01/10 15:00:14;;;;;;;16.83;3.63;;;;;;;;;;5044958;28;20422;-76